createdAt,value
2018-08-11T00:00:14.511Z,101664.59
2018-08-11T00:02:41.202Z,101661.34
2018-08-11T00:05:07.884Z,101661.58
2018-08-11T00:07:34.667Z,101663.41
2018-08-11T00:10:01.332Z,101659.96
2018-08-11T00:12:28.089Z,101653.80
2018-08-11T00:14:54.861Z,101651.77
2018-08-11T00:17:21.633Z,101656.25
2018-08-11T00:19:49.293Z,101650.55
2018-08-11T00:22:19.584Z,101657.70
2018-08-11T00:24:46.259Z,101648.52
2018-08-11T00:27:12.920Z,101644.38
2018-08-11T00:29:39.573Z,101640.13
2018-08-11T00:32:06.238Z,101639.43
2018-08-11T00:34:32.904Z,101636.13
2018-08-11T00:36:59.572Z,101633.23
2018-08-11T00:39:26.212Z,101628.98
2018-08-11T00:41:52.876Z,101625.39
2018-08-11T00:44:19.599Z,101625.24
2018-08-11T00:46:46.245Z,101622.12
2018-08-11T00:49:12.900Z,101626.31
2018-08-11T00:51:39.558Z,101624.84
2018-08-11T00:54:06.228Z,101618.58
2018-08-11T00:56:33.954Z,101610.56
2018-08-11T00:59:00.679Z,101615.05
2018-08-11T01:01:27.336Z,101611.46
2018-08-11T01:03:54.009Z,101611.72
2018-08-11T01:06:20.672Z,101602.14
2018-08-11T01:08:47.336Z,101605.50
2018-08-11T01:11:14.041Z,101606.39
2018-08-11T01:13:40.685Z,101601.06
2018-08-11T01:16:07.345Z,101604.39
2018-08-11T01:18:34.010Z,101603.50
2018-08-11T01:21:00.696Z,101603.59
2018-08-11T01:23:27.347Z,101606.89
2018-08-11T01:25:54.005Z,101605.41
2018-08-11T01:28:20.660Z,101602.05
2018-08-11T01:30:47.337Z,101601.22
2018-08-11T01:33:13.998Z,101598.55
2018-08-11T01:35:40.675Z,101604.83
2018-08-11T01:38:07.356Z,101599.87
2018-08-11T01:40:34.038Z,101597.22
2018-08-11T01:43:00.714Z,101599.73
2018-08-11T01:45:27.410Z,101599.16
2018-08-11T01:47:54.073Z,101597.13
2018-08-11T01:50:20.726Z,101594.11
2018-08-11T01:52:47.545Z,101590.27
2018-08-11T01:55:15.459Z,101585.92
2018-08-11T01:57:42.188Z,101583.75
2018-08-11T02:00:10.237Z,101582.33
2018-08-11T02:02:37.080Z,101583.25
2018-08-11T02:05:05.584Z,101579.58
2018-08-11T02:07:32.252Z,101576.16
2018-08-11T02:09:58.900Z,101581.39
2018-08-11T02:12:25.543Z,101574.25
2018-08-11T02:14:53.080Z,101565.53
2018-08-11T02:17:20.325Z,101563.16
2018-08-11T02:19:46.988Z,101564.84
2018-08-11T02:22:13.644Z,101552.97
2018-08-11T02:24:40.335Z,101553.06
2018-08-11T02:27:07.304Z,101541.81
2018-08-11T02:29:33.952Z,101537.47
2018-08-11T02:32:00.629Z,101539.48
2018-08-11T02:34:27.340Z,101539.34
2018-08-11T02:36:54.014Z,101537.47
2018-08-11T02:39:20.674Z,101533.81
2018-08-11T02:41:47.330Z,101537.23
2018-08-11T02:44:14.004Z,101535.76
2018-08-11T02:46:40.684Z,101535.23
2018-08-11T02:49:08.208Z,101532.34
2018-08-11T02:51:36.069Z,101527.56
2018-08-11T02:54:12.804Z,101533.23
2018-08-11T02:56:39.514Z,101532.45
2018-08-11T02:59:06.616Z,101522.84
2018-08-11T03:01:33.307Z,101522.01
2018-08-11T03:04:00.141Z,101514.86
2018-08-11T03:06:26.820Z,101507.11
2018-08-11T03:08:53.637Z,101507.25
2018-08-11T03:11:20.285Z,101514.26
2018-08-11T03:13:46.944Z,101510.75
2018-08-11T03:16:13.602Z,101512.69
2018-08-11T03:18:41.656Z,101515.70
2018-08-11T03:21:08.322Z,101514.02
2018-08-11T03:23:36.452Z,101515.84
2018-08-11T03:26:03.102Z,101511.25
2018-08-11T03:28:30.136Z,101513.67
2018-08-11T03:30:56.823Z,101512.84
2018-08-11T03:33:23.496Z,101509.25
2018-08-11T03:35:50.149Z,101514.52
2018-08-11T03:38:16.824Z,101512.98
2018-08-11T03:40:43.487Z,101514.31
2018-08-11T03:43:10.161Z,101506.59
2018-08-11T03:45:36.809Z,101506.23
2018-08-11T03:48:03.478Z,101506.19
2018-08-11T03:50:30.161Z,101501.34
2018-08-11T03:52:56.822Z,101502.25
2018-08-11T03:55:23.494Z,101508.06
2018-08-11T03:57:50.151Z,101506.53
2018-08-11T04:00:16.946Z,101512.87
2018-08-11T04:02:43.633Z,101512.31
2018-08-11T04:05:10.285Z,101507.80
2018-08-11T04:07:36.954Z,101512.25
2018-08-11T04:10:04.147Z,101504.05
2018-08-11T04:12:30.941Z,101502.19
2018-08-11T04:14:57.613Z,101498.77
2018-08-11T04:17:40.222Z,101501.77
2018-08-11T04:20:08.624Z,101492.86
2018-08-11T04:22:35.764Z,101493.90
2018-08-11T04:25:02.433Z,101492.45
2018-08-11T04:27:29.116Z,101495.88
2018-08-11T04:29:56.716Z,101492.88
2018-08-11T04:32:23.453Z,101495.13
2018-08-11T04:34:50.091Z,101494.05
2018-08-11T04:37:16.783Z,101486.56
2018-08-11T04:39:43.432Z,101490.89
2018-08-11T04:42:10.221Z,101481.23
2018-08-11T04:44:36.920Z,101485.87
2018-08-11T04:47:03.577Z,101484.23
2018-08-11T04:49:30.259Z,101483.74
2018-08-11T04:51:56.928Z,101486.78
2018-08-11T04:54:24.768Z,101485.95
2018-08-11T04:56:51.428Z,101478.56
2018-08-11T04:59:19.423Z,101478.86
2018-08-11T05:01:46.999Z,101480.89
2018-08-11T05:04:13.681Z,101483.20
2018-08-11T05:06:40.340Z,101473.39
2018-08-11T05:09:07.484Z,101475.21
2018-08-11T05:11:34.165Z,101472.89
2018-08-11T05:14:00.833Z,101463.72
2018-08-11T05:16:27.485Z,101467.37
2018-08-11T05:18:54.536Z,101464.55
2018-08-11T05:21:21.204Z,101468.70
2018-08-11T05:23:47.890Z,101461.32
2018-08-11T05:26:14.560Z,101462.84
2018-08-11T05:28:41.291Z,101458.84
2018-08-11T05:31:07.943Z,101466.08
2018-08-11T05:33:35.600Z,101460.26
2018-08-11T05:36:02.265Z,101462.80
2018-08-11T05:38:29.537Z,101470.87
2018-08-11T05:40:56.217Z,101472.70
2018-08-11T05:43:22.925Z,101470.38
2018-08-11T05:45:50.776Z,101475.14
2018-08-11T05:48:17.460Z,101478.41
2018-08-11T05:50:44.137Z,101471.71
2018-08-11T05:53:10.805Z,101477.04
2018-08-11T05:55:37.468Z,101475.41
2018-08-11T05:58:04.257Z,101477.87
2018-08-11T06:00:30.928Z,101480.89
2018-08-11T06:02:57.606Z,101477.73
2018-08-11T06:05:24.261Z,101479.55
2018-08-11T06:07:51.000Z,101473.23
2018-08-11T06:10:17.657Z,101472.70
2018-08-11T06:12:44.336Z,101472.70
2018-08-11T06:15:10.981Z,101470.50
2018-08-11T06:17:37.682Z,101480.20
2018-08-11T06:20:05.817Z,101480.81
2018-08-11T06:22:32.460Z,101474.03
2018-08-11T06:24:59.220Z,101474.49
2018-08-11T06:27:25.930Z,101470.98
2018-08-11T06:29:52.593Z,101472.05
2018-08-11T06:32:20.942Z,101469.05
2018-08-11T06:34:47.590Z,101462.88
2018-08-11T06:37:14.248Z,101470.98
2018-08-11T06:39:40.900Z,101470.38
2018-08-11T06:42:07.566Z,101467.37
2018-08-11T06:44:34.242Z,101471.83
2018-08-11T06:47:00.942Z,101471.71
2018-08-11T06:49:27.561Z,101471.71
2018-08-11T06:51:54.209Z,101477.87
2018-08-11T06:54:20.864Z,101470.87
2018-08-11T06:56:49.532Z,101476.89
2018-08-11T06:59:16.769Z,101471.22
2018-08-11T07:01:43.409Z,101471.91
2018-08-11T07:04:10.041Z,101477.61
2018-08-11T07:06:37.086Z,101471.29
2018-08-11T07:09:05.669Z,101472.47
2018-08-11T07:11:32.327Z,101469.31
2018-08-11T07:13:59.085Z,101473.46
2018-08-11T07:16:25.936Z,101476.39
2018-08-11T07:18:52.757Z,101476.70
2018-08-11T07:21:20.592Z,101477.38
2018-08-11T07:23:47.237Z,101471.83
2018-08-11T07:26:13.908Z,101473.87
2018-08-11T07:28:40.552Z,101475.21
2018-08-11T07:31:07.272Z,101475.14
2018-08-11T07:33:33.922Z,101470.16
2018-08-11T07:36:00.631Z,101477.30
2018-08-11T07:38:27.274Z,101485.64
2018-08-11T07:40:54.052Z,101480.69
2018-08-11T07:43:20.827Z,101479.13
2018-08-11T07:45:47.653Z,101482.98
2018-08-11T07:48:14.309Z,101485.03
2018-08-11T07:50:40.977Z,101486.48
2018-08-11T07:53:07.740Z,101476.05
2018-08-11T07:55:38.522Z,101478.03
2018-08-11T07:58:05.604Z,101475.63
2018-08-11T08:00:33.122Z,101473.95
2018-08-11T08:02:59.773Z,101479.28
2018-08-11T08:05:26.497Z,101478.98
2018-08-11T08:07:53.149Z,101478.98
2018-08-11T08:10:20.666Z,101463.76
2018-08-11T08:12:47.353Z,101472.97
2018-08-11T08:15:14.073Z,101472.20
2018-08-11T08:17:40.740Z,101469.16
2018-08-11T08:20:07.630Z,101476.31
2018-08-11T08:22:34.276Z,101482.30
2018-08-11T08:25:00.956Z,101477.80
2018-08-11T08:27:27.607Z,101479.13
2018-08-11T08:29:54.271Z,101481.80
2018-08-11T08:32:20.969Z,101480.81
2018-08-11T08:34:47.621Z,101480.81
2018-08-11T08:37:14.264Z,101481.65
2018-08-11T08:39:40.977Z,101482.30
2018-08-11T08:42:07.624Z,101497.02
2018-08-11T08:44:34.281Z,101486.28
2018-08-11T08:47:00.925Z,101488.80
2018-08-11T08:49:27.637Z,101487.27
2018-08-11T08:51:54.408Z,101494.78
2018-08-11T08:54:25.919Z,101500.10
2018-08-11T08:56:52.587Z,101492.53
2018-08-11T08:59:20.568Z,101487.70
2018-08-11T09:01:47.241Z,101488.80
2018-08-11T09:04:13.896Z,101488.16
2018-08-11T09:06:42.311Z,101490.78
2018-08-11T09:09:10.148Z,101482.64
2018-08-11T09:11:36.873Z,101482.06
2018-08-11T09:14:07.452Z,101485.30
2018-08-11T09:16:34.999Z,101487.63
2018-08-11T09:19:01.861Z,101483.63
2018-08-11T09:21:28.616Z,101485.56
2018-08-11T09:23:55.282Z,101486.90
2018-08-11T09:26:22.032Z,101485.56
2018-08-11T09:28:49.412Z,101479.89
2018-08-11T09:31:16.084Z,101478.06
2018-08-11T09:33:42.744Z,101473.09
2018-08-11T09:36:09.413Z,101465.24
2018-08-11T09:38:37.502Z,101471.41
2018-08-11T09:41:04.168Z,101476.66
2018-08-11T09:43:30.936Z,101480.54
2018-08-11T09:46:05.264Z,101479.20
2018-08-11T09:48:31.944Z,101483.73
2018-08-11T09:50:59.372Z,101477.50
2018-08-11T09:53:26.047Z,101481.72
2018-08-11T09:55:52.696Z,101478.83
2018-08-11T09:58:20.051Z,101485.14
2018-08-11T10:00:49.533Z,101484.87
2018-08-11T10:03:16.259Z,101485.30
2018-08-11T10:05:42.905Z,101478.64
2018-08-11T10:08:09.553Z,101474.98
2018-08-11T10:10:37.009Z,101472.31
2018-08-11T10:13:03.774Z,101474.64
2018-08-11T10:15:30.430Z,101472.66
2018-08-11T10:17:57.085Z,101473.16
2018-08-11T10:20:23.750Z,101473.50
2018-08-11T10:22:50.444Z,101475.41
2018-08-11T10:25:17.152Z,101471.71
2018-08-11T10:27:43.797Z,101466.16
2018-08-11T10:30:10.454Z,101463.83
2018-08-11T10:32:37.314Z,101461.32
2018-08-11T10:35:04.121Z,101452.00
2018-08-11T10:37:31.009Z,101454.66
2018-08-11T10:39:57.685Z,101451.50
2018-08-11T10:42:24.373Z,101454.86
2018-08-11T10:44:51.012Z,101450.73
2018-08-11T10:47:17.693Z,101446.86
2018-08-11T10:49:44.373Z,101440.58
2018-08-11T10:52:11.044Z,101441.27
2018-08-11T10:54:37.823Z,101440.58
2018-08-11T10:57:04.493Z,101437.19
2018-08-11T10:59:31.160Z,101440.20
2018-08-11T11:01:57.952Z,101445.06
2018-08-11T11:04:24.617Z,101443.73
2018-08-11T11:06:51.281Z,101451.92
2018-08-11T11:09:18.073Z,101455.23
2018-08-11T11:11:44.865Z,101455.50
2018-08-11T11:14:11.548Z,101453.33
2018-08-11T11:16:38.229Z,101449.33
2018-08-11T11:19:05.517Z,101449.48
2018-08-11T11:21:32.152Z,101451.01
2018-08-11T11:24:01.720Z,101457.32
2018-08-11T11:26:28.383Z,101455.99
2018-08-11T11:28:55.193Z,101454.66
2018-08-11T11:31:21.851Z,101457.52
2018-08-11T11:33:49.877Z,101455.72
2018-08-11T11:36:16.536Z,101474.37
2018-08-11T11:38:43.670Z,101472.55
2018-08-11T11:41:10.320Z,101468.47
2018-08-11T11:43:37.022Z,101471.33
2018-08-11T11:46:03.688Z,101477.80
2018-08-11T11:48:30.770Z,101483.96
2018-08-11T11:50:57.445Z,101485.06
2018-08-11T11:53:24.153Z,101482.70
2018-08-11T11:55:51.923Z,101486.55
2018-08-11T11:58:19.296Z,101489.91
2018-08-11T12:00:46.006Z,101482.89
2018-08-11T12:03:12.723Z,101476.95
2018-08-11T12:05:39.415Z,101481.64
2018-08-11T12:08:06.117Z,101483.55
2018-08-11T12:10:32.816Z,101473.87
2018-08-11T12:12:59.541Z,101463.22
2018-08-11T12:15:26.213Z,101465.50
2018-08-11T12:17:52.923Z,101474.37
2018-08-11T12:20:20.665Z,101464.82
2018-08-11T12:22:47.342Z,101463.56
2018-08-11T12:25:14.025Z,101469.38
2018-08-11T12:27:40.701Z,101460.41
2018-08-11T12:30:08.369Z,101458.73
2018-08-11T12:32:35.074Z,101470.34
2018-08-11T12:35:01.850Z,101465.81
2018-08-11T12:37:28.538Z,101459.07
2018-08-11T12:39:55.275Z,101462.42
2018-08-11T12:42:21.935Z,101447.43
2018-08-11T12:44:50.038Z,101454.31
2018-08-11T12:47:16.713Z,101459.56
2018-08-11T12:49:43.386Z,101447.28
2018-08-11T12:52:10.126Z,101448.19
2018-08-11T12:54:36.835Z,101460.55
2018-08-11T12:57:03.637Z,101448.34
2018-08-11T12:59:30.310Z,101441.53
2018-08-11T13:01:56.988Z,101448.69
2018-08-11T13:04:23.759Z,101447.09
2018-08-11T13:06:50.460Z,101464.05
2018-08-11T13:09:17.148Z,101433.54
2018-08-11T13:11:43.846Z,101442.25
2018-08-11T13:14:10.504Z,101445.19
2018-08-11T13:16:37.259Z,101434.45
2018-08-11T13:19:03.949Z,101442.17
2018-08-11T13:21:30.609Z,101449.75
2018-08-11T13:23:57.314Z,101437.07
2018-08-11T13:26:23.969Z,101445.33
2018-08-11T13:28:50.647Z,101436.30
2018-08-11T13:31:17.496Z,101417.06
2018-08-11T13:33:44.136Z,101434.23
2018-08-11T13:36:10.802Z,101434.80
2018-08-11T13:38:38.151Z,101425.38
2018-08-11T13:41:05.979Z,101427.77
2018-08-11T13:43:32.645Z,101433.36
2018-08-11T13:45:59.313Z,101422.29
2018-08-11T13:48:26.380Z,101425.95
2018-08-11T13:50:53.057Z,101416.61
2018-08-11T13:53:26.345Z,101419.13
2018-08-11T13:55:52.986Z,101426.53
2018-08-11T13:58:21.174Z,101420.77
2018-08-11T14:00:47.870Z,101419.03
2018-08-11T14:03:14.549Z,101417.54
2018-08-11T14:05:41.210Z,101407.38
2018-08-11T14:08:07.881Z,101429.04
2018-08-11T14:10:34.528Z,101408.21
2018-08-11T14:13:01.241Z,101409.20
2018-08-11T14:15:27.892Z,101407.94
2018-08-11T14:17:54.537Z,101396.06
2018-08-11T14:20:21.236Z,101396.37
2018-08-11T14:22:47.901Z,101391.78
2018-08-11T14:25:14.582Z,101403.78
2018-08-11T14:27:41.314Z,101395.56
2018-08-11T14:30:08.793Z,101402.04
2018-08-11T14:32:36.149Z,101389.77
2018-08-11T14:35:02.850Z,101393.05
2018-08-11T14:37:29.520Z,101398.20
2018-08-11T14:39:56.195Z,101396.37
2018-08-11T14:42:23.000Z,101395.72
2018-08-11T14:44:50.624Z,101399.99
2018-08-11T14:47:17.264Z,101389.14
2018-08-11T14:49:44.066Z,101386.75
2018-08-11T14:52:10.742Z,101392.00
2018-08-11T14:54:37.534Z,101394.81
2018-08-11T14:57:04.470Z,101385.64
2018-08-11T14:59:31.238Z,101390.63
2018-08-11T15:01:57.889Z,101396.30
2018-08-11T15:04:24.580Z,101393.08
2018-08-11T15:06:51.258Z,101396.58
2018-08-11T15:09:17.917Z,101401.63
2018-08-11T15:11:44.632Z,101391.59
2018-08-11T15:14:11.333Z,101390.06
2018-08-11T15:16:37.994Z,101394.19
2018-08-11T15:19:04.717Z,101385.73
2018-08-11T15:21:32.045Z,101393.66
2018-08-11T15:23:58.717Z,101390.56
2018-08-11T15:26:25.449Z,101385.84
2018-08-11T15:28:53.379Z,101394.00
2018-08-11T15:31:20.078Z,101391.83
2018-08-11T15:33:46.770Z,101399.17
2018-08-11T15:36:13.471Z,101384.17
2018-08-11T15:38:40.132Z,101391.18
2018-08-11T15:41:06.871Z,101393.41
2018-08-11T15:43:33.541Z,101390.41
2018-08-11T15:46:00.220Z,101400.08
2018-08-11T15:48:26.861Z,101397.56
2018-08-11T15:50:53.589Z,101394.56
2018-08-11T15:53:20.250Z,101392.66
2018-08-11T15:55:46.933Z,101397.28
2018-08-11T15:58:13.588Z,101393.28
2018-08-11T16:00:40.301Z,101409.49
2018-08-11T16:03:06.975Z,101399.52
2018-08-11T16:05:33.670Z,101397.34
2018-08-11T16:08:00.354Z,101408.50
2018-08-11T16:10:27.049Z,101397.50
2018-08-11T16:12:53.752Z,101397.77
2018-08-11T16:15:20.417Z,101398.15
2018-08-11T16:17:47.961Z,101401.24
2018-08-11T16:20:14.672Z,101401.92
2018-08-11T16:22:41.349Z,101407.41
2018-08-11T16:25:08.026Z,101414.07
2018-08-11T16:27:34.699Z,101414.07
2018-08-11T16:30:01.370Z,101414.91
2018-08-11T16:32:28.044Z,101423.67
2018-08-11T16:34:54.725Z,101421.34
2018-08-11T16:37:21.387Z,101431.73
2018-08-11T16:39:49.001Z,101422.91
2018-08-11T16:42:15.751Z,101434.67
2018-08-11T16:44:42.449Z,101423.82
2018-08-11T16:47:09.121Z,101424.50
2018-08-11T16:49:35.797Z,101427.94
2018-08-11T16:52:02.804Z,101432.66
2018-08-11T16:54:29.484Z,101426.98
2018-08-11T16:56:56.169Z,101430.60
2018-08-11T16:59:22.848Z,101430.75
2018-08-11T17:01:50.115Z,101431.09
2018-08-11T17:04:16.782Z,101435.93
2018-08-11T17:06:43.481Z,101436.08
2018-08-11T17:09:11.126Z,101441.27
2018-08-11T17:11:37.801Z,101437.19
2018-08-11T17:14:04.529Z,101440.72
2018-08-11T17:16:31.229Z,101438.67
2018-08-11T17:18:57.873Z,101448.00
2018-08-11T17:21:24.524Z,101439.66
2018-08-11T17:23:51.199Z,101448.84
2018-08-11T17:26:17.932Z,101449.56
2018-08-11T17:28:44.629Z,101454.31
2018-08-11T17:31:11.296Z,101455.84
2018-08-11T17:33:37.951Z,101458.16
2018-08-11T17:36:04.648Z,101451.73
2018-08-11T17:38:31.293Z,101454.51
2018-08-11T17:40:57.936Z,101457.33
2018-08-11T17:43:24.609Z,101454.66
2018-08-11T17:45:51.260Z,101458.31
2018-08-11T17:48:17.942Z,101458.16
2018-08-11T17:50:44.617Z,101458.09
2018-08-11T17:53:11.291Z,101462.80
2018-08-11T17:55:38.018Z,101456.27
2018-08-11T17:58:04.641Z,101460.98
2018-08-11T18:00:31.282Z,101465.96
2018-08-11T18:02:57.990Z,101461.81
2018-08-11T18:05:24.652Z,101469.31
2018-08-11T18:07:51.314Z,101474.41
2018-08-11T18:10:19.566Z,101478.91
2018-08-11T18:12:46.346Z,101482.56
2018-08-11T18:15:13.032Z,101490.70
2018-08-11T18:17:39.697Z,101488.73
2018-08-11T18:20:06.396Z,101490.81
2018-08-11T18:22:33.093Z,101499.19
2018-08-11T18:24:59.772Z,101499.88
2018-08-11T18:27:26.437Z,101500.86
2018-08-11T18:29:53.084Z,101497.63
2018-08-11T18:32:20.848Z,101503.30
2018-08-11T18:34:47.592Z,101509.62
2018-08-11T18:37:14.241Z,101511.94
2018-08-11T18:39:40.899Z,101518.45
2018-08-11T18:42:08.397Z,101520.42
2018-08-11T18:44:36.185Z,101520.99
2018-08-11T18:47:02.853Z,101522.73
2018-08-11T18:49:29.675Z,101527.92
2018-08-11T18:51:56.439Z,101528.19
2018-08-11T18:54:23.136Z,101532.52
2018-08-11T18:56:51.218Z,101533.25
2018-08-11T18:59:17.939Z,101539.19
2018-08-11T19:01:44.604Z,101542.23
2018-08-11T19:04:11.357Z,101542.84
2018-08-11T19:06:38.070Z,101546.48
2018-08-11T19:09:07.541Z,101552.16
2018-08-11T19:11:34.192Z,101551.32
2018-08-11T19:14:00.869Z,101556.16
2018-08-11T19:16:27.594Z,101560.98
2018-08-11T19:18:54.335Z,101558.82
2018-08-11T19:21:21.037Z,101565.13
2018-08-11T19:23:47.777Z,101570.61
2018-08-11T19:26:14.468Z,101567.56
2018-08-11T19:28:41.799Z,101568.78
2018-08-11T19:31:08.646Z,101574.95
2018-08-11T19:33:36.183Z,101573.62
2018-08-11T19:36:03.081Z,101572.89
2018-08-11T19:38:30.501Z,101575.02
2018-08-11T19:40:58.329Z,101571.36
2018-08-11T19:43:25.326Z,101572.95
2018-08-11T19:45:52.300Z,101577.53
2018-08-11T19:48:20.346Z,101576.84
2018-08-11T19:50:47.279Z,101578.22
2018-08-11T19:53:14.269Z,101578.02
2018-08-11T19:55:41.211Z,101577.38
2018-08-11T19:58:08.187Z,101580.34
2018-08-11T20:00:36.292Z,101579.55
2018-08-11T20:03:03.258Z,101579.96
2018-08-11T20:05:30.363Z,101578.77
2018-08-11T20:07:57.410Z,101584.83
2018-08-11T20:10:24.378Z,101580.25
2018-08-11T20:12:51.385Z,101586.27
2018-08-11T20:15:19.515Z,101587.31
2018-08-11T20:17:46.474Z,101584.73
2018-08-11T20:20:13.439Z,101589.92
2018-08-11T20:22:40.379Z,101589.42
2018-08-11T20:25:07.875Z,101594.06
2018-08-11T20:27:34.855Z,101592.23
2018-08-11T20:30:02.707Z,101598.08
2018-08-11T20:32:29.689Z,101593.14
2018-08-11T20:34:57.121Z,101594.47
2018-08-11T20:37:24.028Z,101600.83
2018-08-11T20:39:50.828Z,101596.58
2018-08-11T20:42:17.705Z,101596.72
2018-08-11T20:44:44.451Z,101604.34
2018-08-11T20:47:11.189Z,101604.48
2018-08-11T20:49:37.983Z,101599.99
2018-08-11T20:52:04.764Z,101599.50
2018-08-11T20:54:31.465Z,101592.15
2018-08-11T20:56:58.146Z,101597.97
2018-08-11T20:59:24.938Z,101600.34
2018-08-11T21:01:51.689Z,101604.62
2018-08-11T21:04:19.304Z,101595.80
2018-08-11T21:06:45.973Z,101598.34
2018-08-11T21:09:13.385Z,101599.41
2018-08-11T21:11:40.096Z,101600.63
2018-08-11T21:14:07.384Z,101604.05
2018-08-11T21:16:35.926Z,101607.89
2018-08-11T21:19:02.633Z,101603.06
2018-08-11T21:21:29.376Z,101600.42
2018-08-11T21:23:56.259Z,101603.64
2018-08-11T21:26:22.891Z,101606.07
2018-08-11T21:28:51.330Z,101612.13
2018-08-11T21:31:17.993Z,101604.13
2018-08-11T21:33:44.677Z,101612.15
2018-08-11T21:36:11.358Z,101607.71
2018-08-11T21:38:38.012Z,101607.55
2018-08-11T21:41:04.742Z,101605.00
2018-08-11T21:43:31.389Z,101608.06
2018-08-11T21:45:58.056Z,101605.05
2018-08-11T21:48:25.221Z,101612.90
2018-08-11T21:50:51.921Z,101609.51
2018-08-11T21:53:19.691Z,101616.48
2018-08-11T21:55:46.395Z,101616.03
2018-08-11T21:58:13.059Z,101613.39
2018-08-11T22:00:39.765Z,101605.25
2018-08-11T22:03:06.933Z,101610.38
2018-08-11T22:05:33.597Z,101605.66
2018-08-11T22:08:01.172Z,101608.31
2018-08-11T22:10:28.400Z,101605.25
2018-08-11T22:12:55.123Z,101599.34
2018-08-11T22:15:21.804Z,101600.83
2018-08-11T22:17:50.403Z,101600.13
2018-08-11T22:20:17.091Z,101601.80
2018-08-11T22:22:44.297Z,101598.65
2018-08-11T22:25:11.737Z,101594.42
2018-08-11T22:27:38.404Z,101595.64
2018-08-11T22:30:05.713Z,101595.89
2018-08-11T22:32:32.401Z,101595.17
2018-08-11T22:34:59.555Z,101591.91
2018-08-11T22:37:26.203Z,101587.67
2018-08-11T22:39:52.857Z,101588.26
2018-08-11T22:42:20.635Z,101595.17
2018-08-11T22:44:47.322Z,101591.95
2018-08-11T22:47:14.082Z,101590.97
2018-08-11T22:49:40.698Z,101591.32
2018-08-11T22:52:07.354Z,101591.55
2018-08-11T22:54:34.788Z,101586.00
2018-08-11T22:57:01.471Z,101579.97
2018-08-11T22:59:28.146Z,101579.97
2018-08-11T23:01:54.824Z,101576.94
2018-08-11T23:04:21.485Z,101576.94
2018-08-11T23:06:48.134Z,101578.41
2018-08-11T23:09:14.809Z,101574.27
2018-08-11T23:11:41.456Z,101576.94
2018-08-11T23:14:08.113Z,101581.51
2018-08-11T23:16:37.629Z,101578.06
2018-08-11T23:19:04.300Z,101578.66
2018-08-11T23:21:30.959Z,101577.83
2018-08-11T23:23:57.625Z,101577.83
2018-08-11T23:26:24.269Z,101579.06
2018-08-11T23:28:51.131Z,101580.77
2018-08-11T23:31:17.822Z,101578.20
2018-08-11T23:33:44.476Z,101580.68
2018-08-11T23:36:11.155Z,101583.69
2018-08-11T23:38:37.826Z,101580.14
2018-08-11T23:41:04.496Z,101582.70
2018-08-11T23:43:31.156Z,101583.44
2018-08-11T23:45:57.973Z,101578.60
2018-08-11T23:48:24.645Z,101580.77
2018-08-11T23:50:51.307Z,101582.85
2018-08-11T23:53:18.013Z,101575.94
2018-08-11T23:55:44.657Z,101579.94
2018-08-11T23:58:11.324Z,101578.12
